Elsmere, New York
Current Conditions -  °F | °C
As of 8:51 AM on Saturday 22 Nov 2014 (Local Time) from KALB Reporting Station
Broken Clouds Broken Clouds  
Wind Chill: -12°   Ceiling: 14000
Heat Index: -5°   Visibility: 10mi
Dew Point: -11°   Wind: 13mph
Humidity: 63%   Direction: 170°S
Pressure: 30.37"   Gusts: NA
Location:  42.6018°N, 73.8686°W
Report Text: KALB 221351Z 17011KT 10SM BKN140 BKN260 M05/M11 A3037 RMK AO2 SLP288 T10501111
Loading
Personal Weather Stations






























Interactive Weather Map New forecast layout! Learn more

10-Day Weather Forecast

Advertisements
Track Severe Weather on mobile